createdAt,value
2018-04-12T00:01:44.425Z,21.77
2018-04-12T00:04:12.703Z,21.47
2018-04-12T00:06:41.039Z,20.77
2018-04-12T00:09:09.319Z,20.67
2018-04-12T00:11:37.547Z,21.60
2018-04-12T00:14:05.770Z,21.57
2018-04-12T00:16:34.020Z,21.30
2018-04-12T00:19:02.260Z,21.33
2018-04-12T00:21:30.515Z,21.63
2018-04-12T00:23:58.771Z,20.60
2018-04-12T00:26:27.069Z,21.77
2018-04-12T00:28:56.060Z,21.60
2018-04-12T00:31:25.080Z,20.97
2018-04-12T00:33:53.341Z,21.20
2018-04-12T00:36:22.328Z,21.17
2018-04-12T00:38:50.662Z,21.97
2018-04-12T00:41:18.839Z,22.47
2018-04-12T00:43:47.092Z,21.57
2018-04-12T00:46:15.329Z,21.67
2018-04-12T00:48:44.345Z,20.70
2018-04-12T00:51:12.580Z,21.70
2018-04-12T00:53:52.798Z,21.23
2018-04-12T00:56:21.038Z,21.57
2018-04-12T00:58:49.287Z,21.33
2018-04-12T01:01:17.523Z,21.60
2018-04-12T01:03:45.773Z,20.77
2018-04-12T01:06:14.045Z,21.70
2018-04-12T01:08:42.282Z,21.87
2018-04-12T01:11:10.508Z,21.93
2018-04-12T01:13:38.798Z,21.57
2018-04-12T01:16:07.081Z,21.23
2018-04-12T01:18:35.320Z,21.73
2018-04-12T01:21:04.320Z,21.33
2018-04-12T01:23:32.570Z,21.43
2018-04-12T01:26:00.801Z,21.37
2018-04-12T01:28:29.057Z,22.67
2018-04-12T01:30:57.293Z,20.73
2018-04-12T01:33:25.544Z,20.67
2018-04-12T01:35:53.778Z,21.97
2018-04-12T01:38:22.043Z,21.30
2018-04-12T01:40:51.041Z,21.53
2018-04-12T01:43:19.284Z,22.17
2018-04-12T01:45:47.532Z,22.70
2018-04-12T01:48:15.896Z,22.43
2018-04-12T01:50:44.151Z,22.40
2018-04-12T01:53:12.445Z,21.93
2018-04-12T01:55:41.409Z,22.33
2018-04-12T01:58:10.407Z,22.23
2018-04-12T02:00:39.440Z,22.67
2018-04-12T02:03:07.683Z,21.47
2018-04-12T02:05:36.700Z,21.17
2018-04-12T02:08:04.978Z,22.47
2018-04-12T02:10:33.205Z,23.13
2018-04-12T02:13:01.460Z,22.07
2018-04-12T02:15:29.737Z,20.80
2018-04-12T02:17:57.992Z,22.03
2018-04-12T02:20:26.225Z,21.90
2018-04-12T02:22:55.313Z,22.57
2018-04-12T02:25:23.555Z,22.90
2018-04-12T02:27:51.793Z,22.93
2018-04-12T02:30:20.047Z,23.37
2018-04-12T02:32:49.032Z,23.63
2018-04-12T02:35:18.049Z,21.30
2018-04-12T02:37:46.272Z,22.37
2018-04-12T02:40:15.291Z,21.90
2018-04-12T02:42:43.532Z,22.27
2018-04-12T02:45:11.789Z,22.70
2018-04-12T02:47:40.021Z,21.90
2018-04-12T02:50:08.246Z,22.30
2018-04-12T02:52:36.500Z,23.23
2018-04-12T02:55:04.730Z,21.80
2018-04-12T02:57:32.973Z,21.97
2018-04-12T03:00:01.199Z,22.60
2018-04-12T03:02:29.466Z,23.27
2018-04-12T03:04:57.688Z,23.40
2018-04-12T03:07:25.946Z,22.47
2018-04-12T03:09:54.968Z,22.80
2018-04-12T03:12:23.213Z,23.17
2018-04-12T03:14:52.235Z,22.43
2018-04-12T03:17:20.478Z,23.47
2018-04-12T03:19:49.511Z,22.77
2018-04-12T03:22:17.737Z,23.13
2018-04-12T03:24:45.993Z,22.83
2018-04-12T03:27:14.228Z,22.83
2018-04-12T03:29:42.473Z,24.47
2018-04-12T03:32:10.732Z,23.93
2018-04-12T03:34:38.961Z,23.67
2018-04-12T03:37:07.204Z,23.33
2018-04-12T03:39:36.207Z,23.67
2018-04-12T03:42:05.217Z,23.13
2018-04-12T03:44:33.480Z,23.40
2018-04-12T03:47:01.759Z,23.60
2018-04-12T03:49:29.997Z,24.23
2018-04-12T03:51:58.243Z,23.90
2018-04-12T03:54:26.481Z,23.70
2018-04-12T03:56:55.501Z,25.17
2018-04-12T03:59:23.741Z,24.37
2018-04-12T04:01:51.982Z,24.80
2018-04-12T04:04:20.244Z,24.03
2018-04-12T04:06:48.504Z,24.50
2018-04-12T04:09:17.501Z,23.73
2018-04-12T04:11:45.754Z,23.23
2018-04-12T04:14:26.726Z,25.00
2018-04-12T04:17:06.830Z,24.63
2018-04-12T04:19:47.020Z,24.53
2018-04-12T04:22:15.255Z,24.47
2018-04-12T04:24:43.485Z,25.67
2018-04-12T04:27:12.578Z,23.53
2018-04-12T04:29:41.588Z,23.77
2018-04-12T04:32:09.826Z,23.27
2018-04-12T04:34:38.068Z,24.20
2018-04-12T04:37:06.307Z,24.07
2018-04-12T04:39:35.341Z,25.60
2018-04-12T04:42:04.387Z,25.90
2018-04-12T04:44:33.401Z,24.70
2018-04-12T04:47:01.646Z,24.73
2018-04-12T04:49:29.905Z,23.87
2018-04-12T04:51:58.154Z,23.33
2018-04-12T04:54:26.409Z,25.23
2018-04-12T04:56:54.661Z,23.77
2018-04-12T04:59:23.680Z,24.03
2018-04-12T05:01:51.912Z,24.77
2018-04-12T05:04:20.172Z,23.97
2018-04-12T05:06:48.401Z,25.03
2018-04-12T05:09:16.701Z,24.20
2018-04-12T05:11:44.957Z,23.53
2018-04-12T05:14:13.222Z,25.30
2018-04-12T05:16:41.465Z,24.20
2018-04-12T05:19:09.728Z,25.60
2018-04-12T05:21:38.004Z,23.87
2018-04-12T05:24:06.274Z,24.13
2018-04-12T05:26:34.517Z,24.60
2018-04-12T05:29:02.760Z,24.47
2018-04-12T05:31:31.795Z,24.63
2018-04-12T05:34:00.013Z,24.90
2018-04-12T05:36:28.276Z,24.57
2018-04-12T05:38:56.510Z,23.93
2018-04-12T05:41:24.783Z,24.40
2018-04-12T05:43:53.032Z,24.53
2018-04-12T05:46:21.359Z,23.80
2018-04-12T05:48:49.634Z,24.63
2018-04-12T05:51:17.862Z,25.37
2018-04-12T05:53:46.154Z,22.20
2018-04-12T05:56:15.165Z,23.70
2018-04-12T05:58:43.410Z,23.07
2018-04-12T06:01:11.663Z,23.43
2018-04-12T06:03:39.890Z,23.23
2018-04-12T06:06:08.148Z,22.27
2018-04-12T06:08:37.165Z,22.37
2018-04-12T06:11:05.445Z,22.30
2018-04-12T06:13:33.691Z,22.43
2018-04-12T06:16:02.689Z,23.77
2018-04-12T06:18:31.712Z,23.50
2018-04-12T06:20:59.964Z,22.20
2018-04-12T06:23:29.000Z,22.67
2018-04-12T06:25:57.293Z,22.37
2018-04-12T06:28:25.577Z,22.97
2018-04-12T06:30:53.838Z,22.80
2018-04-12T06:33:22.105Z,23.43
2018-04-12T06:35:50.334Z,22.17
2018-04-12T06:38:19.353Z,20.87
2018-04-12T06:40:47.800Z,22.57
2018-04-12T06:43:16.036Z,22.63
2018-04-12T06:45:44.258Z,21.07
2018-04-12T06:48:13.294Z,20.83
2018-04-12T06:50:41.612Z,19.93
2018-04-12T06:53:09.862Z,20.90
2018-04-12T06:55:38.098Z,21.07
2018-04-12T06:58:07.112Z,21.20
2018-04-12T07:00:35.373Z,21.00
2018-04-12T07:03:03.661Z,20.60
2018-04-12T07:05:31.975Z,20.00
2018-04-12T07:08:00.180Z,20.53
2018-04-12T07:10:28.426Z,20.63
2018-04-12T07:12:56.677Z,20.73
2018-04-12T07:15:24.927Z,19.47
2018-04-12T07:17:54.012Z,19.00
2018-04-12T07:20:22.246Z,19.43
2018-04-12T07:22:50.489Z,20.90
2018-04-12T07:25:18.862Z,19.00
2018-04-12T07:27:47.129Z,19.10
2018-04-12T07:30:15.392Z,19.77
2018-04-12T07:32:44.415Z,18.43
2018-04-12T07:35:12.677Z,23.30
2018-04-12T07:37:40.965Z,20.07
2018-04-12T07:40:09.225Z,20.40
2018-04-12T07:42:38.298Z,18.43
2018-04-12T07:45:06.550Z,19.30
2018-04-12T07:47:34.791Z,19.00
2018-04-12T07:50:03.074Z,20.23
2018-04-12T07:52:31.301Z,19.07
2018-04-12T07:54:59.567Z,18.97
2018-04-12T07:57:27.820Z,19.27
2018-04-12T07:59:56.081Z,19.37
2018-04-12T08:02:24.332Z,19.73
2018-04-12T08:04:53.383Z,18.97
2018-04-12T08:07:21.620Z,17.67
2018-04-12T08:09:49.881Z,19.37
2018-04-12T08:12:18.910Z,18.50
2018-04-12T08:14:47.157Z,18.30
2018-04-12T08:17:15.425Z,18.07
2018-04-12T08:19:44.430Z,18.60
2018-04-12T08:22:12.696Z,18.13
2018-04-12T08:24:41.703Z,17.67
2018-04-12T08:27:10.849Z,17.57
2018-04-12T08:29:39.157Z,18.30
2018-04-12T08:32:07.384Z,17.53
2018-04-12T08:34:35.648Z,17.57
2018-04-12T08:37:03.904Z,18.40
2018-04-12T08:39:32.186Z,16.53
2018-04-12T08:42:01.223Z,17.40
2018-04-12T08:44:29.496Z,23.40
2018-04-12T08:46:57.756Z,18.30
2018-04-12T08:49:25.993Z,17.90
2018-04-12T08:51:55.004Z,17.53
2018-04-12T08:54:23.254Z,16.67
2018-04-12T08:56:52.324Z,17.67
2018-04-12T08:59:20.576Z,17.33
2018-04-12T09:01:48.832Z,18.53
2018-04-12T09:04:17.086Z,17.17
2018-04-12T09:06:46.091Z,17.67
2018-04-12T09:09:14.349Z,16.83
2018-04-12T09:11:43.349Z,17.30
2018-04-12T09:14:12.395Z,15.90
2018-04-12T09:16:40.619Z,16.63
2018-04-12T09:19:09.706Z,17.70
2018-04-12T09:21:37.930Z,16.73
2018-04-12T09:24:06.194Z,15.77
2018-04-12T09:26:34.421Z,16.17
2018-04-12T09:29:02.671Z,16.33
2018-04-12T09:31:30.928Z,16.27
2018-04-12T09:33:59.179Z,16.87
2018-04-12T09:36:28.179Z,16.90
2018-04-12T09:38:56.466Z,17.33
2018-04-12T09:41:24.697Z,17.83
2018-04-12T09:43:52.949Z,17.87
2018-04-12T09:46:21.253Z,17.13
2018-04-12T09:48:49.504Z,18.47
2018-04-12T09:51:17.733Z,17.40
2018-04-12T09:53:45.987Z,17.77
2018-04-12T09:56:14.244Z,15.83
2018-04-12T09:58:42.505Z,16.10
2018-04-12T10:01:15.699Z,16.43
2018-04-12T10:03:43.927Z,14.87
2018-04-12T10:06:27.047Z,15.87
2018-04-12T10:09:01.790Z,18.77
2018-04-12T10:11:30.042Z,16.17
2018-04-12T10:13:59.056Z,13.77
2018-04-12T10:16:27.316Z,15.83
2018-04-12T10:18:56.355Z,15.70
2018-04-12T10:21:24.584Z,15.67
2018-04-12T10:23:53.604Z,15.73
2018-04-12T10:26:21.838Z,15.53
2018-04-12T10:28:50.116Z,15.53
2018-04-12T10:31:18.334Z,14.70
2018-04-12T10:33:46.594Z,14.50
2018-04-12T10:36:15.596Z,15.07
2018-04-12T10:38:43.889Z,15.47
2018-04-12T10:41:12.085Z,16.37
2018-04-12T10:43:40.325Z,15.20
2018-04-12T10:46:08.582Z,14.87
2018-04-12T10:48:37.588Z,16.07
2018-04-12T10:51:06.613Z,15.37
2018-04-12T10:53:34.848Z,15.97
2018-04-12T10:56:03.873Z,17.03
2018-04-12T10:58:32.119Z,16.00
2018-04-12T11:01:01.112Z,16.30
2018-04-12T11:03:30.167Z,15.67
2018-04-12T11:05:58.371Z,15.40
2018-04-12T11:08:26.719Z,15.70
2018-04-12T11:10:54.961Z,16.43
2018-04-12T11:13:23.196Z,17.93
2018-04-12T11:15:51.456Z,15.47
2018-04-12T11:18:19.795Z,14.90
2018-04-12T11:20:48.027Z,15.20
2018-04-12T11:23:16.291Z,16.63
2018-04-12T11:25:44.628Z,15.67
2018-04-12T11:28:12.873Z,15.57
2018-04-12T11:30:41.874Z,16.30
2018-04-12T11:33:10.955Z,13.80
2018-04-12T11:35:39.193Z,13.07
2018-04-12T11:38:07.458Z,11.63
2018-04-12T11:40:35.770Z,11.63
2018-04-12T11:43:03.996Z,9.00
2018-04-12T11:45:32.229Z,9.73
2018-04-12T11:48:00.471Z,10.03
2018-04-12T11:50:28.705Z,10.17
2018-04-12T11:52:57.022Z,8.40
2018-04-12T11:55:25.236Z,9.33
2018-04-12T11:57:53.467Z,9.43
2018-04-12T12:00:21.714Z,9.70
2018-04-12T12:02:50.731Z,8.20
2018-04-12T12:05:18.982Z,8.30
2018-04-12T12:07:47.265Z,8.70
2018-04-12T12:10:16.291Z,8.13
2018-04-12T12:12:44.520Z,6.50
2018-04-12T12:15:13.501Z,8.10
2018-04-12T12:17:42.529Z,7.87
2018-04-12T12:20:10.770Z,7.60
2018-04-12T12:22:39.016Z,7.13
2018-04-12T12:25:07.264Z,7.70
2018-04-12T12:27:35.524Z,6.83
2018-04-12T12:30:04.524Z,7.33
2018-04-12T12:32:32.748Z,8.17
2018-04-12T12:35:01.000Z,7.47
2018-04-12T12:37:29.222Z,6.97
2018-04-12T12:39:57.477Z,7.53
2018-04-12T12:42:25.701Z,8.30
2018-04-12T12:44:53.940Z,7.27
2018-04-12T12:47:22.244Z,7.90
2018-04-12T12:49:51.232Z,7.83
2018-04-12T12:52:20.251Z,7.47
2018-04-12T12:54:48.487Z,8.73
2018-04-12T12:57:16.736Z,7.43
2018-04-12T12:59:44.958Z,8.80
2018-04-12T13:02:13.970Z,8.37
2018-04-12T13:04:42.192Z,8.50
2018-04-12T13:07:10.445Z,8.23
2018-04-12T13:09:38.690Z,6.97
2018-04-12T13:12:06.952Z,8.13
2018-04-12T13:14:35.971Z,7.87
2018-04-12T13:17:04.204Z,8.07
2018-04-12T13:19:32.435Z,7.23
2018-04-12T13:22:00.693Z,8.50
2018-04-12T13:24:28.916Z,8.33
2018-04-12T13:26:57.177Z,8.73
2018-04-12T13:29:25.407Z,8.40
2018-04-12T13:31:54.432Z,7.77
2018-04-12T13:34:24.029Z,9.23
2018-04-12T13:36:52.265Z,8.70
2018-04-12T13:39:20.891Z,8.30
2018-04-12T13:41:49.144Z,7.57
2018-04-12T13:44:18.216Z,8.00
2018-04-12T13:46:46.389Z,8.60
2018-04-12T13:49:14.668Z,8.40
2018-04-12T13:51:42.916Z,7.37
2018-04-12T13:54:11.160Z,8.07
2018-04-12T13:56:39.387Z,8.00
2018-04-12T13:59:07.689Z,7.30
2018-04-12T14:01:36.698Z,10.13
2018-04-12T14:04:04.955Z,7.97
2018-04-12T14:06:33.991Z,10.47
2018-04-12T14:09:02.226Z,9.07
2018-04-12T14:11:31.238Z,7.77
2018-04-12T14:13:59.532Z,7.73
2018-04-12T14:16:27.789Z,8.03
2018-04-12T14:18:56.034Z,9.70
2018-04-12T14:21:24.270Z,13.13
2018-04-12T14:23:52.524Z,9.03
2018-04-12T14:26:20.745Z,11.40
2018-04-12T14:28:48.995Z,9.83
2018-04-12T14:31:17.236Z,9.73
2018-04-12T14:33:46.226Z,9.33
2018-04-12T14:36:15.338Z,9.43
2018-04-12T14:38:43.486Z,10.23
2018-04-12T14:41:12.508Z,10.97
2018-04-12T14:43:40.733Z,10.00
2018-04-12T14:46:08.991Z,10.87
2018-04-12T14:48:37.248Z,9.93
2018-04-12T14:51:05.509Z,9.57
2018-04-12T14:53:33.794Z,10.60
2018-04-12T14:56:02.009Z,11.90
2018-04-12T14:58:30.241Z,11.10
2018-04-12T15:00:58.474Z,11.87
2018-04-12T15:03:26.729Z,11.30
2018-04-12T15:05:54.999Z,12.03
2018-04-12T15:08:24.061Z,11.90
2018-04-12T15:10:52.292Z,12.30
2018-04-12T15:13:21.091Z,14.53
2018-04-12T15:15:49.349Z,12.57
2018-04-12T15:18:17.609Z,11.87
2018-04-12T15:20:46.338Z,12.77
2018-04-12T15:23:15.293Z,15.80
2018-04-12T15:25:43.529Z,14.33
2018-04-12T15:28:11.853Z,13.67
2018-04-12T15:30:40.112Z,15.73
2018-04-12T15:33:08.390Z,16.10
2018-04-12T15:35:37.188Z,13.37
2018-04-12T15:38:05.422Z,12.43
2018-04-12T15:40:34.477Z,12.90
2018-04-12T15:43:03.125Z,13.67
2018-04-12T15:45:31.371Z,13.50
2018-04-12T15:48:00.375Z,13.83
2018-04-12T15:50:28.625Z,19.20
2018-04-12T15:52:57.653Z,14.40
2018-04-12T15:55:25.918Z,14.73
2018-04-12T15:57:54.130Z,18.67
2018-04-12T16:00:22.425Z,14.90
2018-04-12T16:02:50.680Z,17.07
2018-04-12T16:05:18.909Z,19.27
2018-04-12T16:07:47.995Z,19.67
2018-04-12T16:10:16.200Z,16.57
2018-04-12T16:12:44.470Z,16.60
2018-04-12T16:15:13.469Z,18.27
2018-04-12T16:17:41.688Z,20.27
2018-04-12T16:20:09.939Z,17.13
2018-04-12T16:22:38.184Z,16.97
2018-04-12T16:25:07.203Z,16.50
2018-04-12T16:27:35.449Z,17.30
2018-04-12T16:30:04.438Z,17.20
2018-04-12T16:32:32.700Z,17.63
2018-04-12T16:35:00.918Z,17.47
2018-04-12T16:37:29.192Z,16.33
2018-04-12T16:39:57.426Z,17.73
2018-04-12T16:42:25.650Z,16.23
2018-04-12T16:44:53.904Z,16.77
2018-04-12T16:47:22.896Z,18.00
2018-04-12T16:49:51.929Z,17.13
2018-04-12T16:52:20.167Z,18.67
2018-04-12T16:54:49.155Z,17.77
2018-04-12T16:57:18.172Z,18.40
2018-04-12T16:59:46.440Z,18.90
2018-04-12T17:02:15.468Z,17.47
2018-04-12T17:04:43.695Z,18.43
2018-04-12T17:07:12.713Z,17.00
2018-04-12T17:09:40.949Z,18.77
2018-04-12T17:12:09.217Z,17.57
2018-04-12T17:14:37.451Z,18.00
2018-04-12T17:17:05.685Z,17.93
2018-04-12T17:19:33.943Z,17.13
2018-04-12T17:22:02.183Z,17.33
2018-04-12T17:24:30.418Z,18.33
2018-04-12T17:26:59.445Z,18.50
2018-04-12T17:29:27.678Z,18.30
2018-04-12T17:31:56.734Z,17.93
2018-04-12T17:34:25.050Z,18.97
2018-04-12T17:36:53.304Z,19.07
2018-04-12T17:39:21.572Z,19.73
2018-04-12T17:41:49.800Z,19.63
2018-04-12T17:44:18.833Z,19.10
2018-04-12T17:46:47.055Z,19.30
2018-04-12T17:49:15.285Z,19.20
2018-04-12T17:51:43.554Z,20.20
2018-04-12T17:54:11.791Z,19.87
2018-04-12T17:56:40.807Z,18.93
2018-04-12T17:59:09.072Z,20.00
2018-04-12T18:01:38.112Z,20.20
2018-04-12T18:04:06.348Z,20.63
2018-04-12T18:06:35.367Z,20.23
2018-04-12T18:09:03.602Z,18.93
2018-04-12T18:11:32.608Z,20.23
2018-04-12T18:14:01.601Z,19.87
2018-04-12T18:16:30.621Z,21.70
2018-04-12T18:18:58.852Z,21.30
2018-04-12T18:21:27.097Z,19.43
2018-04-12T18:23:55.336Z,21.20
2018-04-12T18:26:23.596Z,21.20
2018-04-12T18:28:52.596Z,20.57
2018-04-12T18:31:20.832Z,21.90
2018-04-12T18:33:49.124Z,21.13
2018-04-12T18:36:17.316Z,21.00
2018-04-12T18:38:46.342Z,21.10
2018-04-12T18:41:14.571Z,20.43
2018-04-12T18:43:42.854Z,21.27
2018-04-12T18:46:11.106Z,21.00
2018-04-12T18:48:39.331Z,20.70
2018-04-12T18:51:07.556Z,22.17
2018-04-12T18:53:35.813Z,21.33
2018-04-12T18:56:04.045Z,21.23
2018-04-12T18:58:33.069Z,20.97
2018-04-12T19:01:01.323Z,21.60
2018-04-12T19:03:30.333Z,22.10
2018-04-12T19:05:58.576Z,21.37
2018-04-12T19:08:27.598Z,21.90
2018-04-12T19:10:55.854Z,21.60
2018-04-12T19:13:24.089Z,22.03
2018-04-12T19:15:52.318Z,21.93
2018-04-12T19:18:20.555Z,21.37
2018-04-12T19:20:48.806Z,22.27
2018-04-12T19:23:17.793Z,21.90
2018-04-12T19:25:46.124Z,21.53
2018-04-12T19:28:15.113Z,22.53
2018-04-12T19:30:44.164Z,20.77
2018-04-12T19:33:12.404Z,21.43
2018-04-12T19:35:40.653Z,21.93
2018-04-12T19:38:08.880Z,21.80
2018-04-12T19:40:37.141Z,23.37
2018-04-12T19:43:05.368Z,28.33
2018-04-12T19:45:33.623Z,22.70
2018-04-12T19:48:01.867Z,23.60
2018-04-12T19:50:30.088Z,22.87
2018-04-12T19:52:58.342Z,23.30
2018-04-12T19:55:26.577Z,24.23
2018-04-12T19:57:55.587Z,23.17
2018-04-12T20:00:23.849Z,24.83
2018-04-12T20:02:52.055Z,23.50
2018-04-12T20:05:20.318Z,24.83
2018-04-12T20:07:48.559Z,24.57
2018-04-12T20:10:16.788Z,25.20
2018-04-12T20:12:45.051Z,25.10
2018-04-12T20:15:13.283Z,24.83
2018-04-12T20:17:41.540Z,25.83
2018-04-12T20:20:09.765Z,25.10
2018-04-12T20:22:38.094Z,25.33
2018-04-12T20:25:07.063Z,25.77
2018-04-12T20:27:35.265Z,24.80
2018-04-12T20:30:03.540Z,25.53
2018-04-12T20:32:31.744Z,26.27
2018-04-12T20:35:00.797Z,25.87
2018-04-12T20:37:29.040Z,26.20
2018-04-12T20:39:57.268Z,26.83
2018-04-12T20:42:25.534Z,26.37
2018-04-12T20:44:53.776Z,26.80
2018-04-12T20:47:22.013Z,27.93
2018-04-12T20:49:50.256Z,27.97
2018-04-12T20:52:18.502Z,26.30
2018-04-12T20:54:46.763Z,27.97
2018-04-12T20:57:15.761Z,33.50
2018-04-12T20:59:44.016Z,28.83
2018-04-12T21:02:13.018Z,29.27
2018-04-12T21:04:42.032Z,31.10
2018-04-12T21:07:10.327Z,30.20
2018-04-12T21:09:38.550Z,31.43
2018-04-12T21:12:06.795Z,29.07
2018-04-12T21:14:35.020Z,30.23
2018-04-12T21:17:04.032Z,29.47
2018-04-12T21:19:32.261Z,28.50
2018-04-12T21:22:00.507Z,28.70
2018-04-12T21:24:28.738Z,29.93
2018-04-12T21:26:57.752Z,28.67
2018-04-12T21:29:25.989Z,28.47
2018-04-12T21:31:54.238Z,29.73
2018-04-12T21:34:22.492Z,29.17
2018-04-12T21:36:50.724Z,29.90
2018-04-12T21:39:19.743Z,31.20
2018-04-12T21:41:47.980Z,29.87
2018-04-12T21:44:16.199Z,30.47
2018-04-12T21:46:44.447Z,30.57
2018-04-12T21:49:13.465Z,29.60
2018-04-12T21:51:41.713Z,30.97
2018-04-12T21:54:09.961Z,30.67
2018-04-12T21:56:38.220Z,29.70
2018-04-12T21:59:06.454Z,29.97
2018-04-12T22:01:35.441Z,31.17
2018-04-12T22:04:04.452Z,31.10
2018-04-12T22:06:32.687Z,31.23
2018-04-12T22:09:00.969Z,31.37
2018-04-12T22:11:29.212Z,28.77
2018-04-12T22:13:57.441Z,31.83
2018-04-12T22:16:26.473Z,29.43
2018-04-12T22:18:54.705Z,30.33
2018-04-12T22:21:23.733Z,31.13
2018-04-12T22:23:51.960Z,29.47
2018-04-12T22:26:20.210Z,30.87
2018-04-12T22:28:48.454Z,30.50
2018-04-12T22:31:16.701Z,30.53
2018-04-12T22:33:44.929Z,31.10
2018-04-12T22:36:13.187Z,30.97
2018-04-12T22:38:41.414Z,31.27
2018-04-12T22:41:09.663Z,31.87
2018-04-12T22:43:37.890Z,30.37
2018-04-12T22:46:06.916Z,30.23
2018-04-12T22:48:35.153Z,29.73
2018-04-12T22:51:04.144Z,30.63
2018-04-12T22:53:32.397Z,31.10
2018-04-12T22:56:00.644Z,32.00
2018-04-12T22:58:28.886Z,30.80
2018-04-12T23:00:57.883Z,31.47
2018-04-12T23:03:26.899Z,31.77
2018-04-12T23:05:55.145Z,30.73
2018-04-12T23:08:24.154Z,31.47
2018-04-12T23:10:53.160Z,31.17
2018-04-12T23:13:21.416Z,31.80
2018-04-12T23:15:50.427Z,30.40
2018-04-12T23:18:18.675Z,30.23
2018-04-12T23:20:46.921Z,30.70
2018-04-12T23:23:15.179Z,30.83
2018-04-12T23:25:43.408Z,32.37
2018-04-12T23:28:12.443Z,31.53
2018-04-12T23:30:40.688Z,33.60
2018-04-12T23:33:09.667Z,30.73
2018-04-12T23:35:38.688Z,31.17
2018-04-12T23:38:06.917Z,29.70
2018-04-12T23:40:35.146Z,31.10
2018-04-12T23:43:03.412Z,30.33
2018-04-12T23:45:31.637Z,30.73
2018-04-12T23:47:59.876Z,30.53
2018-04-12T23:50:28.129Z,30.60
2018-04-12T23:52:57.134Z,31.77
2018-04-12T23:55:25.399Z,31.17
2018-04-12T23:57:54.431Z,31.73
